sensor_id;sensor_type;location;lat;lon;timestamp;pressure;altitude;pressure_sealevel;temperature;humidity
76137;BME280;68622;53.128;17.966;2024-03-23T00:56:06;100373.12;;;10.47;72.86
76137;BME280;68622;53.128;17.966;2024-03-23T00:58:33;100375.72;;;10.49;72.80
76137;BME280;68622;53.128;17.966;2024-03-23T01:00:59;100379.19;;;10.46;72.89
76137;BME280;68622;53.128;17.966;2024-03-23T01:03:26;100379.52;;;10.42;72.95
76137;BME280;68622;53.128;17.966;2024-03-23T01:05:52;100379.26;;;10.39;73.03
76137;BME280;68622;53.128;17.966;2024-03-23T01:08:20;100379.95;;;10.36;73.19
76137;BME280;68622;53.128;17.966;2024-03-23T01:10:57;100380.67;;;10.35;72.96
76137;BME280;68622;53.128;17.966;2024-03-23T01:13:24;100383.54;;;10.34;72.63
76137;BME280;68622;53.128;17.966;2024-03-23T01:15:51;100386.36;;;10.32;72.60
76137;BME280;68622;53.128;17.966;2024-03-23T01:18:19;100393.96;;;10.28;72.42
76137;BME280;68622;53.128;17.966;2024-03-23T01:20:46;100389.02;;;10.25;72.36
76137;BME280;68622;53.128;17.966;2024-03-23T01:23:13;100391.23;;;10.24;72.54
76137;BME280;68622;53.128;17.966;2024-03-23T01:25:40;100389.73;;;10.23;72.30
76137;BME280;68622;53.128;17.966;2024-03-23T01:28:07;100386.94;;;10.24;72.23
76137;BME280;68622;53.128;17.966;2024-03-23T01:30:34;100387.90;;;10.21;72.41
76137;BME280;68622;53.128;17.966;2024-03-23T01:33:02;100381.88;;;10.20;72.52
76137;BME280;68622;53.128;17.966;2024-03-23T01:35:31;100379.39;;;10.19;72.53
76137;BME280;68622;53.128;17.966;2024-03-23T01:37:58;100382.34;;;10.17;72.73
76137;BME280;68622;53.128;17.966;2024-03-23T01:40:24;100374.87;;;10.17;72.67
76137;BME280;68622;53.128;17.966;2024-03-23T01:42:57;100375.33;;;10.18;72.78
76137;BME280;68622;53.128;17.966;2024-03-23T01:45:24;100378.95;;;10.12;73.61
76137;BME280;68622;53.128;17.966;2024-03-23T01:47:51;100376.80;;;10.15;73.41
76137;BME280;68622;53.128;17.966;2024-03-23T01:50:20;100371.86;;;10.20;73.39
76137;BME280;68622;53.128;17.966;2024-03-23T01:52:48;100375.29;;;10.18;73.63
76137;BME280;68622;53.128;17.966;2024-03-23T01:55:14;100375.15;;;10.18;73.53
76137;BME280;68622;53.128;17.966;2024-03-23T01:57:41;100374.97;;;10.18;73.43
76137;BME280;68622;53.128;17.966;2024-03-23T02:00:08;100373.88;;;10.19;73.37
76137;BME280;68622;53.128;17.966;2024-03-23T02:02:45;100370.77;;;10.18;73.51
76137;BME280;68622;53.128;17.966;2024-03-23T02:05:12;100375.62;;;10.16;73.55
76137;BME280;68622;53.128;17.966;2024-03-23T02:07:40;100370.73;;;10.15;73.71
76137;BME280;68622;53.128;17.966;2024-03-23T02:10:08;100367.30;;;10.14;73.61
76137;BME280;68622;53.128;17.966;2024-03-23T02:12:36;100366.66;;;10.12;73.59
76137;BME280;68622;53.128;17.966;2024-03-23T02:15:03;100364.75;;;10.12;73.49
76137;BME280;68622;53.128;17.966;2024-03-23T02:17:32;100361.64;;;10.14;73.42
76137;BME280;68622;53.128;17.966;2024-03-23T02:19:59;100357.79;;;10.11;73.23
76137;BME280;68622;53.128;17.966;2024-03-23T02:22:39;100355.45;;;10.08;72.91
76137;BME280;68622;53.128;17.966;2024-03-23T02:25:06;100351.55;;;10.00;72.21
76137;BME280;68622;53.128;17.966;2024-03-23T02:27:33;100348.45;;;9.97;72.39
76137;BME280;68622;53.128;17.966;2024-03-23T02:30:02;100346.79;;;9.93;71.86
76137;BME280;68622;53.128;17.966;2024-03-23T02:32:28;100343.41;;;9.92;71.61
76137;BME280;68622;53.128;17.966;2024-03-23T02:34:55;100338.91;;;9.90;71.79
76137;BME280;68622;53.128;17.966;2024-03-23T02:37:21;100334.73;;;9.86;71.89
76137;BME280;68622;53.128;17.966;2024-03-23T02:39:48;100334.92;;;9.82;71.89
76137;BME280;68622;53.128;17.966;2024-03-23T02:42:14;100332.27;;;9.79;71.94
76137;BME280;68622;53.128;17.966;2024-03-23T02:44:44;100328.75;;;9.76;72.19
76137;BME280;68622;53.128;17.966;2024-03-23T02:47:11;100325.68;;;9.79;72.01
76137;BME280;68622;53.128;17.966;2024-03-23T02:49:37;100321.30;;;9.79;72.39
76137;BME280;68622;53.128;17.966;2024-03-23T02:52:04;100321.14;;;9.83;72.35
76137;BME280;68622;53.128;17.966;2024-03-23T02:54:30;100311.65;;;9.85;72.63
76137;BME280;68622;53.128;17.966;2024-03-23T02:56:57;100314.92;;;9.83;72.70
76137;BME280;68622;53.128;17.966;2024-03-23T02:59:23;100308.96;;;9.82;72.70
76137;BME280;68622;53.128;17.966;2024-03-23T03:01:50;100301.84;;;9.84;72.67
76137;BME280;68622;53.128;17.966;2024-03-23T03:04:16;100293.05;;;9.89;72.56
76137;BME280;68622;53.128;17.966;2024-03-23T03:06:46;100285.52;;;9.94;72.50
76137;BME280;68622;53.128;17.966;2024-03-23T03:09:13;100289.75;;;9.97;72.75
76137;BME280;68622;53.128;17.966;2024-03-23T03:11:39;100291.17;;;9.95;72.47
76137;BME280;68622;53.128;17.966;2024-03-23T03:14:06;100285.95;;;9.91;72.62
76137;BME280;68622;53.128;17.966;2024-03-23T03:16:34;100279.42;;;9.88;72.72
76137;BME280;68622;53.128;17.966;2024-03-23T03:19:00;100282.52;;;9.85;72.85
76137;BME280;68622;53.128;17.966;2024-03-23T03:21:27;100284.58;;;9.85;72.70
76137;BME280;68622;53.128;17.966;2024-03-23T03:23:54;100283.59;;;9.85;72.96
76137;BME280;68622;53.128;17.966;2024-03-23T03:26:23;100281.54;;;9.82;73.16
76137;BME280;68622;53.128;17.966;2024-03-23T03:28:50;100276.89;;;9.80;73.35
76137;BME280;68622;53.128;17.966;2024-03-23T03:31:18;100277.48;;;9.79;73.69
76137;BME280;68622;53.128;17.966;2024-03-23T03:33:44;100279.15;;;9.77;73.68
76137;BME280;68622;53.128;17.966;2024-03-23T03:36:11;100276.01;;;9.77;73.80
76137;BME280;68622;53.128;17.966;2024-03-23T03:38:37;100278.14;;;9.76;73.98
76137;BME280;68622;53.128;17.966;2024-03-23T03:41:07;100278.23;;;9.75;73.96
76137;BME280;68622;53.128;17.966;2024-03-23T03:43:33;100275.92;;;9.74;74.20
76137;BME280;68622;53.128;17.966;2024-03-23T03:46:02;100271.28;;;9.70;74.55
76137;BME280;68622;53.128;17.966;2024-03-23T03:48:29;100269.93;;;9.68;74.65
76137;BME280;68622;53.128;17.966;2024-03-23T03:50:55;100272.39;;;9.69;74.51
76137;BME280;68622;53.128;17.966;2024-03-23T03:53:22;100270.24;;;9.70;74.51
76137;BME280;68622;53.128;17.966;2024-03-23T03:55:48;100268.06;;;9.69;74.63
76137;BME280;68622;53.128;17.966;2024-03-23T03:58:15;100266.70;;;9.67;74.77
76137;BME280;68622;53.128;17.966;2024-03-23T04:00:41;100268.39;;;9.66;74.99
76137;BME280;68622;53.128;17.966;2024-03-23T04:03:08;100268.51;;;9.64;75.23
76137;BME280;68622;53.128;17.966;2024-03-23T04:05:34;100271.61;;;9.64;75.17
76137;BME280;68622;53.128;17.966;2024-03-23T04:08:01;100269.86;;;9.66;74.95
76137;BME280;68622;53.128;17.966;2024-03-23T04:10:27;100259.18;;;9.68;74.90
76137;BME280;68622;53.128;17.966;2024-03-23T04:12:54;100259.43;;;9.69;75.17
76137;BME280;68622;53.128;17.966;2024-03-23T04:15:20;100254.69;;;9.70;74.92
76137;BME280;68622;53.128;17.966;2024-03-23T04:17:46;100260.58;;;9.70;75.03
76137;BME280;68622;53.128;17.966;2024-03-23T04:20:13;100261.83;;;9.65;75.07
76137;BME280;68622;53.128;17.966;2024-03-23T04:22:43;100269.08;;;9.64;74.97
76137;BME280;68622;53.128;17.966;2024-03-23T04:25:10;100261.04;;;9.63;74.91
76137;BME280;68622;53.128;17.966;2024-03-23T04:27:37;100258.15;;;9.60;75.01
76137;BME280;68622;53.128;17.966;2024-03-23T04:30:05;100250.12;;;9.59;74.81
76137;BME280;68622;53.128;17.966;2024-03-23T04:32:37;100250.34;;;9.57;74.64
76137;BME280;68622;53.128;17.966;2024-03-23T04:35:04;100249.87;;;9.52;74.37
76137;BME280;68622;53.128;17.966;2024-03-23T04:37:36;100244.92;;;9.55;74.23
76137;BME280;68622;53.128;17.966;2024-03-23T04:40:03;100245.02;;;9.54;74.01
76137;BME280;68622;53.128;17.966;2024-03-23T04:42:31;100250.00;;;9.47;74.03
76137;BME280;68622;53.128;17.966;2024-03-23T04:44:57;100250.45;;;9.38;74.29
76137;BME280;68622;53.128;17.966;2024-03-23T04:47:24;100251.42;;;9.32;74.52
76137;BME280;68622;53.128;17.966;2024-03-23T04:49:50;100248.98;;;9.24;74.80
76137;BME280;68622;53.128;17.966;2024-03-23T04:52:17;100246.39;;;9.24;74.63
76137;BME280;68622;53.128;17.966;2024-03-23T04:54:44;100252.02;;;9.21;74.54
76137;BME280;68622;53.128;17.966;2024-03-23T04:57:11;100251.02;;;9.27;74.33
76137;BME280;68622;53.128;17.966;2024-03-23T04:59:38;100245.44;;;9.25;74.64
76137;BME280;68622;53.128;17.966;2024-03-23T05:02:04;100238.90;;;9.28;74.66
76137;BME280;68622;53.128;17.966;2024-03-23T05:04:31;100234.85;;;9.33;74.40
76137;BME280;68622;53.128;17.966;2024-03-23T05:06:58;100237.73;;;9.34;74.45
76137;BME280;68622;53.128;17.966;2024-03-23T05:09:25;100231.07;;;9.38;74.09
76137;BME280;68622;53.128;17.966;2024-03-23T05:11:56;100226.64;;;9.39;74.16
76137;BME280;68622;53.128;17.966;2024-03-23T05:14:24;100214.15;;;9.41;74.28
76137;BME280;68622;53.128;17.966;2024-03-23T05:16:51;100211.18;;;9.45;74.28
76137;BME280;68622;53.128;17.966;2024-03-23T05:19:18;100216.23;;;9.45;73.78
76137;BME280;68622;53.128;17.966;2024-03-23T05:21:44;100214.64;;;9.40;73.82
76137;BME280;68622;53.128;17.966;2024-03-23T05:24:12;100213.73;;;9.38;73.96
76137;BME280;68622;53.128;17.966;2024-03-23T05:26:38;100213.08;;;9.38;73.63
76137;BME280;68622;53.128;17.966;2024-03-23T05:29:05;100213.05;;;9.40;73.73
76137;BME280;68622;53.128;17.966;2024-03-23T05:31:33;100208.66;;;9.41;73.93
76137;BME280;68622;53.128;17.966;2024-03-23T05:33:59;100199.83;;;9.39;74.18
76137;BME280;68622;53.128;17.966;2024-03-23T05:36:26;100199.94;;;9.42;73.89
76137;BME280;68622;53.128;17.966;2024-03-23T05:38:52;100194.34;;;9.48;73.84
76137;BME280;68622;53.128;17.966;2024-03-23T05:41:19;100195.36;;;9.50;73.38
76137;BME280;68622;53.128;17.966;2024-03-23T05:43:45;100186.39;;;9.50;73.24
76137;BME280;68622;53.128;17.966;2024-03-23T05:46:12;100183.31;;;9.55;73.26
76137;BME280;68622;53.128;17.966;2024-03-23T05:48:38;100176.59;;;9.62;73.46
76137;BME280;68622;53.128;17.966;2024-03-23T05:51:04;100149.00;;;9.70;73.06
76137;BME280;68622;53.128;17.966;2024-03-23T05:53:31;100149.59;;;9.78;72.67
76137;BME280;68622;53.128;17.966;2024-03-23T05:56:03;100149.88;;;9.88;72.38
76137;BME280;68622;53.128;17.966;2024-03-23T05:58:33;100143.31;;;9.99;72.34
76137;BME280;68622;53.128;17.966;2024-03-23T06:01:01;100129.58;;;10.07;72.26
76137;BME280;68622;53.128;17.966;2024-03-23T06:03:29;100107.35;;;10.14;71.99
76137;BME280;68622;53.128;17.966;2024-03-23T06:05:56;100111.52;;;10.23;71.74
76137;BME280;68622;53.128;17.966;2024-03-23T06:08:22;100131.39;;;10.24;71.12
76137;BME280;68622;53.128;17.966;2024-03-23T06:10:50;100144.14;;;10.14;71.25
76137;BME280;68622;53.128;17.966;2024-03-23T06:13:17;100149.95;;;10.04;71.33
76137;BME280;68622;53.128;17.966;2024-03-23T06:15:44;100150.66;;;9.89;71.71
76137;BME280;68622;53.128;17.966;2024-03-23T06:18:12;100151.95;;;9.79;72.12
76137;BME280;68622;53.128;17.966;2024-03-23T06:20:39;100151.78;;;9.72;72.22
76137;BME280;68622;53.128;17.966;2024-03-23T06:23:06;100146.98;;;9.69;72.50
76137;BME280;68622;53.128;17.966;2024-03-23T06:25:32;100147.83;;;9.70;72.53
76137;BME280;68622;53.128;17.966;2024-03-23T06:28:00;100144.35;;;9.73;72.18
76137;BME280;68622;53.128;17.966;2024-03-23T06:30:29;100138.85;;;9.75;71.81
76137;BME280;68622;53.128;17.966;2024-03-23T06:32:55;100142.38;;;9.78;72.04
76137;BME280;68622;53.128;17.966;2024-03-23T06:35:22;100139.39;;;9.78;72.36
76137;BME280;68622;53.128;17.966;2024-03-23T06:37:48;100140.86;;;9.77;72.45
76137;BME280;68622;53.128;17.966;2024-03-23T06:40:15;100146.45;;;9.71;72.79
76137;BME280;68622;53.128;17.966;2024-03-23T06:42:42;100149.42;;;9.67;73.01
76137;BME280;68622;53.128;17.966;2024-03-23T06:45:09;100147.97;;;9.66;73.10
76137;BME280;68622;53.128;17.966;2024-03-23T06:47:36;100141.98;;;9.64;73.35
76137;BME280;68622;53.128;17.966;2024-03-23T06:50:03;100142.92;;;9.61;73.48
76137;BME280;68622;53.128;17.966;2024-03-23T06:52:30;100146.95;;;9.59;73.49
76137;BME280;68622;53.128;17.966;2024-03-23T06:54:57;100143.22;;;9.56;73.64
76137;BME280;68622;53.128;17.966;2024-03-23T06:57:24;100139.42;;;9.56;73.71
76137;BME280;68622;53.128;17.966;2024-03-23T06:59:50;100142.75;;;9.57;73.50
76137;BME280;68622;53.128;17.966;2024-03-23T07:02:17;100144.59;;;9.56;73.73
76137;BME280;68622;53.128;17.966;2024-03-23T07:04:43;100139.15;;;9.57;73.82
76137;BME280;68622;53.128;17.966;2024-03-23T07:07:10;100136.27;;;9.58;74.15
76137;BME280;68622;53.128;17.966;2024-03-23T07:09:36;100138.04;;;9.59;74.04
76137;BME280;68622;53.128;17.966;2024-03-23T07:12:04;100137.67;;;9.65;73.70
76137;BME280;68622;53.128;17.966;2024-03-23T07:14:31;100143.33;;;9.66;73.87
76137;BME280;68622;53.128;17.966;2024-03-23T07:16:57;100148.91;;;9.64;73.85
76137;BME280;68622;53.128;17.966;2024-03-23T07:19:24;100145.23;;;9.66;73.57
76137;BME280;68622;53.128;17.966;2024-03-23T07:21:51;100140.52;;;9.66;74.17
76137;BME280;68622;53.128;17.966;2024-03-23T07:24:17;100130.98;;;9.66;74.29
76137;BME280;68622;53.128;17.966;2024-03-23T07:26:44;100125.25;;;9.67;74.21
76137;BME280;68622;53.128;17.966;2024-03-23T07:29:11;100127.41;;;9.68;74.33
76137;BME280;68622;53.128;17.966;2024-03-23T07:31:38;100128.42;;;9.66;74.48
76137;BME280;68622;53.128;17.966;2024-03-23T07:34:05;100131.77;;;9.64;74.58
76137;BME280;68622;53.128;17.966;2024-03-23T07:36:32;100121.17;;;9.66;74.62
76137;BME280;68622;53.128;17.966;2024-03-23T07:38:58;100120.36;;;9.67;74.35
76137;BME280;68622;53.128;17.966;2024-03-23T07:41:25;100118.38;;;9.66;74.81
76137;BME280;68622;53.128;17.966;2024-03-23T07:43:53;100121.38;;;9.64;75.04
76137;BME280;68622;53.128;17.966;2024-03-23T07:46:20;100123.45;;;9.62;74.76
76137;BME280;68622;53.128;17.966;2024-03-23T07:48:47;100119.24;;;9.61;74.47
76137;BME280;68622;53.128;17.966;2024-03-23T07:51:18;100118.51;;;9.59;74.51
76137;BME280;68622;53.128;17.966;2024-03-23T07:53:45;100115.64;;;9.59;74.39
76137;BME280;68622;53.128;17.966;2024-03-23T07:56:19;100115.09;;;9.59;74.24
76137;BME280;68622;53.128;17.966;2024-03-23T07:58:46;100111.95;;;9.55;74.09
76137;BME280;68622;53.128;17.966;2024-03-23T08:01:16;100107.80;;;9.52;73.97
76137;BME280;68622;53.128;17.966;2024-03-23T08:03:44;100105.34;;;9.48;73.81
76137;BME280;68622;53.128;17.966;2024-03-23T08:06:16;100098.39;;;9.45;74.15
76137;BME280;68622;53.128;17.966;2024-03-23T08:08:46;100088.50;;;9.46;74.28
76137;BME280;68622;53.128;17.966;2024-03-23T08:11:13;100080.20;;;9.52;74.25
76137;BME280;68622;53.128;17.966;2024-03-23T08:13:42;100079.00;;;9.58;74.14
76137;BME280;68622;53.128;17.966;2024-03-23T08:16:09;100079.84;;;9.60;73.99
76137;BME280;68622;53.128;17.966;2024-03-23T08:18:35;100080.20;;;9.62;73.58
76137;BME280;68622;53.128;17.966;2024-03-23T08:21:05;100079.30;;;9.60;73.31
76137;BME280;68622;53.128;17.966;2024-03-23T08:23:33;100073.91;;;9.64;73.47
76137;BME280;68622;53.128;17.966;2024-03-23T08:26:04;100066.72;;;9.70;73.47
76137;BME280;68622;53.128;17.966;2024-03-23T08:28:31;100068.55;;;9.73;73.31
76137;BME280;68622;53.128;17.966;2024-03-23T08:31:01;100064.60;;;9.67;73.27
76137;BME280;68622;53.128;17.966;2024-03-23T08:33:28;100056.57;;;9.63;72.36
76137;BME280;68622;53.128;17.966;2024-03-23T08:35:58;100061.86;;;9.54;70.99
76137;BME280;68622;53.128;17.966;2024-03-23T08:38:26;100065.48;;;9.43;70.74
76137;BME280;68622;53.128;17.966;2024-03-23T08:41:06;100061.67;;;9.32;70.77
76137;BME280;68622;53.128;17.966;2024-03-23T08:43:36;100054.67;;;9.18;71.06
76137;BME280;68622;53.128;17.966;2024-03-23T08:46:05;100053.41;;;9.17;71.30
76137;BME280;68622;53.128;17.966;2024-03-23T08:48:46;100055.35;;;9.07;71.20
76137;BME280;68622;53.128;17.966;2024-03-23T08:51:16;100066.22;;;8.98;71.25
76137;BME280;68622;53.128;17.966;2024-03-23T08:53:43;100070.77;;;8.92;71.85
76137;BME280;68622;53.128;17.966;2024-03-23T08:56:10;100066.73;;;8.85;72.27
76137;BME280;68622;53.128;17.966;2024-03-23T08:58:37;100056.45;;;8.84;72.44
76137;BME280;68622;53.128;17.966;2024-03-23T09:01:11;100050.14;;;8.79;72.76
76137;BME280;68622;53.128;17.966;2024-03-23T09:03:39;100038.06;;;8.89;72.43
76137;BME280;68622;53.128;17.966;2024-03-23T09:06:07;100031.23;;;8.99;72.26
76137;BME280;68622;53.128;17.966;2024-03-23T09:08:35;100024.89;;;8.98;72.37
76137;BME280;68622;53.128;17.966;2024-03-23T09:11:11;100015.25;;;9.05;71.89
76137;BME280;68622;53.128;17.966;2024-03-23T09:13:38;100009.55;;;9.05;71.62
76137;BME280;68622;53.128;17.966;2024-03-23T09:16:05;100011.15;;;8.89;71.06
76137;BME280;68622;53.128;17.966;2024-03-23T09:18:33;100010.27;;;8.95;71.02
76137;BME280;68622;53.128;17.966;2024-03-23T09:21:02;100010.64;;;8.89;71.01
76137;BME280;68622;53.128;17.966;2024-03-23T09:23:29;100013.02;;;8.95;70.92
76137;BME280;68622;53.128;17.966;2024-03-23T09:25:56;100021.52;;;8.93;70.58
76137;BME280;68622;53.128;17.966;2024-03-23T09:28:22;100014.52;;;8.79;70.06
76137;BME280;68622;53.128;17.966;2024-03-23T09:30:49;100006.63;;;8.77;69.92
76137;BME280;68622;53.128;17.966;2024-03-23T09:33:15;100003.80;;;8.81;70.05
76137;BME280;68622;53.128;17.966;2024-03-23T09:35:43;99999.26;;;8.78;69.74
76137;BME280;68622;53.128;17.966;2024-03-23T09:38:13;99987.91;;;8.81;70.07
76137;BME280;68622;53.128;17.966;2024-03-23T09:40:40;99980.58;;;8.83;69.90
76137;BME280;68622;53.128;17.966;2024-03-23T09:43:09;99981.84;;;8.90;69.50
76137;BME280;68622;53.128;17.966;2024-03-23T09:45:38;99977.88;;;8.94;69.18
76137;BME280;68622;53.128;17.966;2024-03-23T09:48:06;99982.11;;;8.93;69.11
76137;BME280;68622;53.128;17.966;2024-03-23T09:50:33;99978.86;;;8.82;68.66
76137;BME280;68622;53.128;17.966;2024-03-23T09:53:00;99973.45;;;8.90;69.14
76137;BME280;68622;53.128;17.966;2024-03-23T09:55:27;99975.32;;;8.92;69.28
76137;BME280;68622;53.128;17.966;2024-03-23T09:57:53;99971.04;;;8.91;69.25
76137;BME280;68622;53.128;17.966;2024-03-23T10:00:20;99970.87;;;8.84;69.32
76137;BME280;68622;53.128;17.966;2024-03-23T10:02:47;99961.64;;;8.77;69.91
76137;BME280;68622;53.128;17.966;2024-03-23T10:05:20;99958.14;;;8.85;70.26
76137;BME280;68622;53.128;17.966;2024-03-23T10:07:51;99964.59;;;8.97;70.26
76137;BME280;68622;53.128;17.966;2024-03-23T10:10:18;99964.81;;;9.15;69.93
76137;BME280;68622;53.128;17.966;2024-03-23T10:12:45;99962.35;;;9.30;69.53
76137;BME280;68622;53.128;17.966;2024-03-23T10:15:21;99959.59;;;9.41;69.11
76137;BME280;68622;53.128;17.966;2024-03-23T10:17:48;99954.73;;;9.52;69.08
76137;BME280;68622;53.128;17.966;2024-03-23T10:20:22;99950.03;;;9.56;68.44
76137;BME280;68622;53.128;17.966;2024-03-23T10:22:50;99955.94;;;9.55;68.15
76137;BME280;68622;53.128;17.966;2024-03-23T10:25:22;99959.78;;;9.44;67.84
76137;BME280;68622;53.128;17.966;2024-03-23T10:27:58;99950.71;;;9.36;68.68
76137;BME280;68622;53.128;17.966;2024-03-23T10:30:26;99942.68;;;9.44;68.81
76137;BME280;68622;53.128;17.966;2024-03-23T10:33:10;99942.77;;;9.56;69.12
76137;BME280;68622;53.128;17.966;2024-03-23T10:35:37;99942.75;;;9.61;67.80
76137;BME280;68622;53.128;17.966;2024-03-23T10:38:05;99938.45;;;9.63;67.13
76137;BME280;68622;53.128;17.966;2024-03-23T10:40:37;99934.84;;;9.61;66.71
76137;BME280;68622;53.128;17.966;2024-03-23T10:43:04;99932.68;;;9.60;67.05
76137;BME280;68622;53.128;17.966;2024-03-23T10:45:31;99931.33;;;9.57;66.85
76137;BME280;68622;53.128;17.966;2024-03-23T10:47:58;99930.98;;;9.59;66.72
76137;BME280;68622;53.128;17.966;2024-03-23T10:50:24;99923.14;;;9.60;67.11
76137;BME280;68622;53.128;17.966;2024-03-23T10:52:53;99915.11;;;9.66;67.50
76137;BME280;68622;53.128;17.966;2024-03-23T10:55:22;99911.48;;;9.73;66.85
76137;BME280;68622;53.128;17.966;2024-03-23T10:57:57;99910.16;;;9.79;66.42
76137;BME280;68622;53.128;17.966;2024-03-23T11:00:26;99904.88;;;9.74;65.77
76137;BME280;68622;53.128;17.966;2024-03-23T11:02:52;99900.83;;;9.63;65.44
76137;BME280;68622;53.128;17.966;2024-03-23T11:05:29;99888.20;;;9.66;66.15
76137;BME280;68622;53.128;17.966;2024-03-23T11:07:56;99881.39;;;9.76;66.06
76137;BME280;68622;53.128;17.966;2024-03-23T11:10:32;99875.60;;;9.83;66.50
76137;BME280;68622;53.128;17.966;2024-03-23T11:13:22;99874.14;;;9.91;66.71
76137;BME280;68622;53.128;17.966;2024-03-23T11:15:49;99862.31;;;10.01;66.93
76137;BME280;68622;53.128;17.966;2024-03-23T11:18:22;99855.66;;;10.06;65.88
76137;BME280;68622;53.128;17.966;2024-03-23T11:20:48;99864.36;;;10.06;65.55
76137;BME280;68622;53.128;17.966;2024-03-23T11:23:28;99866.83;;;9.97;64.97
76137;BME280;68622;53.128;17.966;2024-03-23T11:25:54;99867.59;;;10.00;65.65
76137;BME280;68622;53.128;17.966;2024-03-23T11:28:21;99863.30;;;10.01;65.55
76137;BME280;68622;53.128;17.966;2024-03-23T11:30:48;99858.45;;;9.98;65.28
76137;BME280;68622;53.128;17.966;2024-03-23T11:33:15;99860.02;;;9.96;65.41
76137;BME280;68622;53.128;17.966;2024-03-23T11:35:42;99853.67;;;9.92;66.06
76137;BME280;68622;53.128;17.966;2024-03-23T11:38:10;99851.21;;;9.92;65.82
76137;BME280;68622;53.128;17.966;2024-03-23T11:40:47;99848.35;;;9.96;66.18
76137;BME280;68622;53.128;17.966;2024-03-23T11:43:17;99843.86;;;9.96;65.39
76137;BME280;68622;53.128;17.966;2024-03-23T11:45:45;99842.36;;;9.94;65.56
76137;BME280;68622;53.128;17.966;2024-03-23T11:48:14;99847.09;;;9.90;66.15
76137;BME280;68622;53.128;17.966;2024-03-23T11:50:42;99840.50;;;9.83;66.33
76137;BME280;68622;53.128;17.966;2024-03-23T11:53:16;99838.41;;;9.73;66.61
76137;BME280;68622;53.128;17.966;2024-03-23T11:55:47;99835.33;;;9.65;66.60
76137;BME280;68622;53.128;17.966;2024-03-23T11:58:15;99835.51;;;9.55;66.54
76137;BME280;68622;53.128;17.966;2024-03-23T12:00:49;99826.31;;;9.50;66.68
76137;BME280;68622;53.128;17.966;2024-03-23T12:03:17;99814.46;;;9.50;67.33
76137;BME280;68622;53.128;17.966;2024-03-23T12:05:52;99814.98;;;9.54;67.67
76137;BME280;68622;53.128;17.966;2024-03-23T12:08:24;99809.94;;;9.53;68.15
76137;BME280;68622;53.128;17.966;2024-03-23T12:10:52;99795.20;;;9.49;68.13
76137;BME280;68622;53.128;17.966;2024-03-23T12:13:21;99791.46;;;9.52;68.22
76137;BME280;68622;53.128;17.966;2024-03-23T12:15:50;99783.29;;;9.54;67.98
76137;BME280;68622;53.128;17.966;2024-03-23T12:18:17;99784.35;;;9.59;68.29
76137;BME280;68622;53.128;17.966;2024-03-23T12:20:50;99780.42;;;9.60;68.14
76137;BME280;68622;53.128;17.966;2024-03-23T12:23:16;99789.49;;;9.58;67.46
76137;BME280;68622;53.128;17.966;2024-03-23T12:25:43;99796.18;;;9.53;68.41
76137;BME280;68622;53.128;17.966;2024-03-23T12:28:10;99806.22;;;9.43;69.10
76137;BME280;68622;53.128;17.966;2024-03-23T12:30:39;99807.56;;;9.29;69.57
76137;BME280;68622;53.128;17.966;2024-03-23T12:33:07;99801.73;;;9.23;69.16
76137;BME280;68622;53.128;17.966;2024-03-23T12:35:34;99797.14;;;9.24;70.22
76137;BME280;68622;53.128;17.966;2024-03-23T12:38:00;99769.98;;;9.33;69.82
76137;BME280;68622;53.128;17.966;2024-03-23T12:40:27;99751.45;;;9.35;69.76
76137;BME280;68622;53.128;17.966;2024-03-23T12:42:55;99752.42;;;9.42;69.45
76137;BME280;68622;53.128;17.966;2024-03-23T12:45:22;99765.54;;;9.36;69.28
76137;BME280;68622;53.128;17.966;2024-03-23T12:47:49;99762.64;;;9.32;69.51
76137;BME280;68622;53.128;17.966;2024-03-23T12:50:16;99763.64;;;9.24;69.48
76137;BME280;68622;53.128;17.966;2024-03-23T12:52:44;99752.42;;;9.14;69.21
76137;BME280;68622;53.128;17.966;2024-03-23T12:55:10;99747.73;;;9.13;69.51
76137;BME280;68622;53.128;17.966;2024-03-23T12:57:37;99732.16;;;9.14;69.52
76137;BME280;68622;53.128;17.966;2024-03-23T13:00:04;99722.46;;;9.13;69.30
76137;BME280;68622;53.128;17.966;2024-03-23T13:02:33;99712.94;;;9.11;69.32
76137;BME280;68622;53.128;17.966;2024-03-23T13:05:01;99701.73;;;9.12;69.38
76137;BME280;68622;53.128;17.966;2024-03-23T13:07:27;99681.13;;;9.11;69.27
76137;BME280;68622;53.128;17.966;2024-03-23T13:09:54;99678.29;;;9.19;69.22
76137;BME280;68622;53.128;17.966;2024-03-23T13:12:20;99682.90;;;9.25;69.23
76137;BME280;68622;53.128;17.966;2024-03-23T13:14:47;99695.00;;;9.23;69.07
76137;BME280;68622;53.128;17.966;2024-03-23T13:17:14;99702.08;;;9.18;68.74
76137;BME280;68622;53.128;17.966;2024-03-23T13:19:41;99704.46;;;9.14;68.89
76137;BME280;68622;53.128;17.966;2024-03-23T13:22:08;99714.04;;;9.09;68.63
76137;BME280;68622;53.128;17.966;2024-03-23T13:24:37;99715.27;;;9.02;68.75
76137;BME280;68622;53.128;17.966;2024-03-23T13:27:05;99712.20;;;8.92;68.84
76137;BME280;68622;53.128;17.966;2024-03-23T13:29:34;99720.43;;;8.81;67.78
76137;BME280;68622;53.128;17.966;2024-03-23T13:32:01;99722.18;;;8.68;68.04
76137;BME280;68622;53.128;17.966;2024-03-23T13:34:28;99721.06;;;8.56;67.65
76137;BME280;68622;53.128;17.966;2024-03-23T13:36:56;99720.76;;;8.49;68.36
76137;BME280;68622;53.128;17.966;2024-03-23T13:39:25;99720.73;;;8.47;68.34
76137;BME280;68622;53.128;17.966;2024-03-23T13:41:54;99728.29;;;8.48;68.71
76137;BME280;68622;53.128;17.966;2024-03-23T13:44:23;99735.52;;;8.43;68.85
76137;BME280;68622;53.128;17.966;2024-03-23T13:46:50;99736.93;;;8.34;69.23
76137;BME280;68622;53.128;17.966;2024-03-23T13:49:25;99731.39;;;8.24;68.93
76137;BME280;68622;53.128;17.966;2024-03-23T13:51:54;99728.70;;;8.18;69.55